Shoal, North Carolina
Current Conditions -  °F | °C
As of 1:35 AM on Friday 31 Oct 2014 (Local Time) from KMWK Reporting Station
Clear Clear  
Wind Chill: 45°   Ceiling: Unl
Heat Index: 50°   Visibility: 10mi
Dew Point: 37°   Wind: 12mph
Humidity: 61%   Direction: 60°ENE
Pressure: 30.02"   Gusts: 20mph
Location:  36.3244°N, 80.463°W
Report Text: KMWK 310535Z AUTO 06010G17KT 10SM CLR 10/03 A3002 RMK AO2 T00990026
Loading
Personal Weather Stations






























Interactive Weather Map
Tropical Storm Tracking
New forecast layout! Learn more

10-Day Weather Forecast

Advertisements
Track Severe Weather on mobile